Winterport, Maine
Current Conditions -  °F | °C
As of 11:53 AM on Thursday 27 Nov 2014 (Local Time) from KBGR Reporting Station
Broken Clouds Broken Clouds  
Wind Chill: -6°   Ceiling: 5000
Heat Index:   Visibility: 10mi
Dew Point: -5°   Wind: 17mph
Humidity: 69%   Direction: 340°NNW
Pressure: 29.87"   Gusts: NA
Location:  44.65°N, 68.86°W
Report Text: KBGR 271653Z 34015KT 10SM SCT027 BKN050 00/M05 A2987 RMK AO2 SLP119 T00001050 $
Loading
Personal Weather Stations






























Interactive Weather Map New forecast layout! Learn more

10-Day Weather Forecast

Advertisements
Track Severe Weather on mobile